Time;durP1;ratioP1;P1;durP2;ratioP2;P2;SDS_P1;SDS_P2;PMS_P1;PMS_P2;Temp;Humidity;BMP_temperature;BMP_pressure;BME280_temperature;BME280_humidity;BME280_pressure;Samples;Min_cycle;Max_cycle;Signal;HPM_P1;HPM_P2
2023/07/05 00:00:41;;;;;;;4.32;2.55;;;;;;;11.66;85.82;101041.09;4993147;28;20488;-76
2023/07/05 00:03:06;;;;;;;5.00;2.88;;;;;;;11.67;85.88;101036.53;5019584;28;20069;-75
2023/07/05 00:05:36;;;;;;;3.92;2.55;;;;;;;11.69;85.94;101034.38;5025497;28;20041;-76
2023/07/05 00:08:03;;;;;;;5.25;3.08;;;;;;;11.69;86.16;101035.19;4997887;28;20036;-77
2023/07/05 00:10:29;;;;;;;5.90;2.65;;;;;;;11.69;86.38;101020.97;5017349;28;20354;-73
2023/07/05 00:12:54;;;;;;;6.05;2.65;;;;;;;11.70;86.67;101023.38;5010010;28;20511;-75
2023/07/05 00:15:20;;;;;;;5.40;2.90;;;;;;;11.73;87.14;101022.06;4988350;28;20113;-75
2023/07/05 00:17:45;;;;;;;7.00;3.72;;;;;;;11.77;87.23;101015.06;5000527;28;20477;-77
2023/07/05 00:20:12;;;;;;;7.63;3.08;;;;;;;11.87;86.08;101022.34;5004336;28;20048;-79
2023/07/05 00:22:37;;;;;;;;;;;;;;;11.94;86.67;101015.59;5014599;28;20029;-77
2023/07/05 00:25:04;;;;;;;5.63;2.65;;;;;;;11.96;86.87;101018.00;5019062;28;19927;-75
2023/07/05 00:27:29;;;;;;;4.03;2.40;;;;;;;12.01;86.82;101007.28;5022122;28;20069;-77
2023/07/05 00:29:55;;;;;;;5.72;2.85;;;;;;;12.02;86.59;101009.66;5011969;28;20113;-75
2023/07/05 00:32:39;;;;;;;5.00;2.55;;;;;;;12.14;85.05;101001.31;4992305;28;20052;-75
2023/07/05 00:35:20;;;;;;;5.25;2.97;;;;;;;12.21;84.66;100996.47;5023065;28;20078;-77
2023/07/05 00:37:54;;;;;;;6.47;2.75;;;;;;;12.25;84.75;100994.81;4999108;28;20056;-77
2023/07/05 00:40:23;;;;;;;5.85;2.85;;;;;;;12.33;84.81;101000.69;4991853;28;20583;-77
2023/07/05 00:42:51;;;;;;;5.40;2.85;;;;;;;12.38;85.46;101004.19;5025892;28;20041;-76
2023/07/05 00:45:18;;;;;;;5.97;3.00;;;;;;;12.39;84.16;100989.66;5022192;28;20033;-76
2023/07/05 00:47:50;;;;;;;6.07;3.28;;;;;;;12.44;83.65;100997.72;5015190;28;20132;-77
2023/07/05 00:50:24;;;;;;;5.72;2.70;;;;;;;12.49;83.84;100988.84;5024840;28;20489;-78
2023/07/05 00:52:57;;;;;;;5.93;3.22;;;;;;;12.47;83.82;100991.00;5004486;28;20041;-77
2023/07/05 00:55:26;;;;;;;6.70;2.90;;;;;;;12.48;84.03;100989.91;5005543;28;20789;-78
2023/07/05 00:57:52;;;;;;;6.07;3.08;;;;;;;12.53;84.06;100988.00;5007230;28;20085;-76
2023/07/05 01:00:30;;;;;;;7.95;3.20;;;;;;;12.52;84.78;100981.00;4987409;28;20045;-77
2023/07/05 01:06:32;;;;;;;6.78;3.60;;;;;;;12.55;84.47;100975.09;4981048;28;20038;-78
2023/07/05 01:08:58;;;;;;;6.20;3.65;;;;;;;12.55;83.55;100976.97;4964945;28;20038;-77
2023/07/05 01:11:54;;;;;;;6.60;3.10;;;;;;;12.58;83.80;100968.34;4994074;28;20449;-76
2023/07/05 01:14:30;;;;;;;6.97;3.50;;;;;;;12.58;83.67;100955.72;5006387;28;20773;-77
2023/07/05 01:17:35;;;;;;;7.97;3.42;;;;;;;12.60;83.86;100952.78;5021831;28;20109;-77
2023/07/05 01:20:24;;;;;;;8.63;3.50;;;;;;;12.58;83.22;100952.25;5008338;28;20610;-78
2023/07/05 01:23:44;;;;;;;9.02;3.67;;;;;;;12.63;83.26;100948.72;5007130;28;20523;-79
2023/07/05 01:27:08;;;;;;;9.45;3.92;;;;;;;12.62;83.15;100950.63;4974393;28;20050;-78
2023/07/05 01:30:18;;;;;;;8.88;3.92;;;;;;;12.63;83.22;100952.22;5000002;28;20046;-77
2023/07/05 01:33:11;;;;;;;10.35;7.32;;;;;;;12.66;83.74;100948.97;5011105;28;21130;-75
2023/07/05 01:35:54;;;;;;;8.18;5.20;;;;;;;12.65;83.76;100944.66;4996895;28;20029;-77
2023/07/05 01:38:23;;;;;;;6.38;3.90;;;;;;;12.65;84.00;100942.00;5015261;28;20036;-76
2023/07/05 01:40:59;;;;;;;10.68;4.72;;;;;;;12.65;83.78;100927.75;5009852;28;20037;-77
2023/07/05 01:43:32;;;;;;;10.05;5.05;;;;;;;12.66;84.38;100940.91;5020402;28;20554;-75
2023/07/05 01:46:28;;;;;;;8.80;3.83;;;;;;;12.69;84.46;100934.19;4992370;28;20199;-78
2023/07/05 01:49:40;;;;;;;13.05;5.60;;;;;;;12.69;84.48;100921.56;5024519;28;20097;-77
2023/07/05 01:52:33;;;;;;;9.07;5.03;;;;;;;12.70;84.41;100920.47;4942181;28;20538;-77
2023/07/05 01:55:29;;;;;;;9.38;4.25;;;;;;;12.70;84.34;100909.72;4958507;28;20649;-75
2023/07/05 01:58:09;;;;;;;14.55;4.80;;;;;;;12.72;84.81;100912.91;5009430;28;20403;-78
2023/07/05 02:00:38;;;;;;;10.05;4.05;;;;;;;12.70;85.57;100898.97;5001483;28;20655;-78
2023/07/05 02:03:17;;;;;;;10.68;4.38;;;;;;;12.71;85.44;100887.13;5021955;28;20041;-77
2023/07/05 02:06:01;;;;;;;8.73;4.10;;;;;;;12.69;85.09;100886.63;5021846;28;20120;-76
2023/07/05 02:08:29;;;;;;;10.95;4.40;;;;;;;12.71;85.43;100876.38;5007504;28;20045;-78
2023/07/05 02:10:55;;;;;;;10.50;4.80;;;;;;;12.72;85.79;100869.94;5003209;28;20033;-78
2023/07/05 02:13:21;;;;;;;9.48;4.88;;;;;;;12.69;85.51;100861.63;4997991;28;20420;-79
2023/07/05 02:15:50;;;;;;;8.88;4.55;;;;;;;12.71;85.88;100862.94;5007991;28;20560;-78
2023/07/05 02:18:16;;;;;;;8.93;4.53;;;;;;;12.71;85.79;100852.19;4998838;28;20036;-75
2023/07/05 02:20:42;;;;;;;;;;;;;;;12.70;85.87;100847.91;5025178;28;20117;-75
2023/07/05 02:23:08;;;;;;;9.23;4.43;;;;;;;12.71;85.26;100840.66;5008136;28;20009;-76
2023/07/05 02:25:35;;;;;;;11.73;4.50;;;;;;;12.72;85.83;100837.69;5008543;28;20508;-77
2023/07/05 02:28:08;;;;;;;8.02;4.50;;;;;;;12.71;85.00;100836.06;5028331;28;20036;-75
2023/07/05 02:30:36;;;;;;;10.20;4.60;;;;;;;12.76;84.78;100825.28;5019008;28;20065;-75
2023/07/05 02:33:01;;;;;;;10.50;4.93;;;;;;;12.78;85.21;100825.81;5008140;28;20056;-78
2023/07/05 02:35:27;;;;;;;8.88;4.75;;;;;;;12.79;85.59;100797.84;5014704;28;20067;-75
2023/07/05 02:37:55;;;;;;;8.55;4.97;;;;;;;12.80;85.11;100785.22;5010363;28;20033;-77
2023/07/05 02:40:23;;;;;;;9.00;4.78;;;;;;;12.83;84.46;100784.66;5029246;28;20044;-76
2023/07/05 02:42:48;;;;;;;10.80;5.50;;;;;;;12.87;85.13;100784.88;5005458;28;20624;-76
2023/07/05 02:45:14;;;;;;;11.27;4.90;;;;;;;12.89;84.15;100772.78;5048728;28;20136;-76
2023/07/05 02:47:39;;;;;;;8.63;5.15;;;;;;;12.91;84.60;100759.03;5017226;28;20079;-76
2023/07/05 02:50:06;;;;;;;6.75;4.30;;;;;;;12.93;84.49;100746.13;5020231;28;20125;-77
2023/07/05 02:52:33;;;;;;;7.63;4.43;;;;;;;13.00;83.76;100741.19;4993843;28;20037;-77
2023/07/05 02:54:59;;;;;;;9.73;4.38;;;;;;;13.08;82.59;100737.91;5008090;28;20044;-75
2023/07/05 02:57:25;;;;;;;10.93;4.43;;;;;;;13.15;82.36;100732.97;4998173;28;20044;-75
2023/07/05 02:59:50;;;;;;;;;;;;;;;13.20;81.81;100719.47;5010339;28;20051;-75
2023/07/05 03:02:16;;;;;;;9.38;4.95;;;;;;;13.26;81.71;100707.59;5027310;28;20235;-77
2023/07/05 03:04:42;;;;;;;8.18;4.38;;;;;;;13.29;82.04;100698.97;5020122;28;20455;-75
2023/07/05 03:07:08;;;;;;;14.52;4.90;;;;;;;13.32;81.88;100674.16;5026096;28;20575;-76
2023/07/05 03:09:34;;;;;;;9.60;5.40;;;;;;;13.32;82.04;100667.97;5009178;28;20125;-76
2023/07/05 03:11:59;;;;;;;12.50;5.05;;;;;;;13.36;81.48;100675.19;5004251;28;20045;-75
2023/07/05 03:14:25;;;;;;;8.27;4.25;;;;;;;13.43;80.48;100669.44;5010096;28;20049;-75
2023/07/05 03:16:51;;;;;;;10.52;5.38;;;;;;;13.45;81.46;100656.50;5021998;28;20046;-75
2023/07/05 03:19:16;;;;;;;11.55;5.07;;;;;;;13.48;80.76;100655.13;5010425;28;20052;-76
2023/07/05 03:21:43;;;;;;;8.23;4.65;;;;;;;13.56;79.33;100651.78;5005807;28;20065;-76
2023/07/05 03:24:09;;;;;;;8.73;4.60;;;;;;;13.66;79.43;100648.94;5025562;28;20057;-77
2023/07/05 03:26:34;;;;;;;7.65;4.50;;;;;;;13.71;79.09;100646.19;5001756;28;20080;-79
2023/07/05 03:29:03;;;;;;;10.07;4.70;;;;;;;13.76;78.43;100648.00;5022962;28;20334;-76
2023/07/05 03:31:28;;;;;;;7.97;4.80;;;;;;;13.82;78.51;100636.06;5004810;28;20041;-78
2023/07/05 03:33:54;;;;;;;9.23;4.55;;;;;;;13.87;77.85;100638.66;5027366;28;20520;-75
2023/07/05 03:36:20;;;;;;;10.70;4.10;;;;;;;13.94;77.60;100637.19;5012311;28;20766;-77
2023/07/05 03:38:49;;;;;;;8.93;4.43;;;;;;;14.01;77.60;100638.69;5009370;28;20654;-77
2023/07/05 03:41:18;;;;;;;8.55;4.43;;;;;;;14.04;77.12;100644.31;5021889;28;20139;-76
2023/07/05 03:43:48;;;;;;;10.10;4.57;;;;;;;14.09;76.30;100644.22;5005424;28;20041;-76
2023/07/05 03:46:15;;;;;;;10.48;4.88;;;;;;;14.15;76.86;100631.44;5017717;28;20151;-76
2023/07/05 03:48:44;;;;;;;7.07;4.55;;;;;;;14.18;77.39;100622.78;5010527;28;20107;-77
2023/07/05 03:51:14;;;;;;;9.38;4.53;;;;;;;14.15;76.74;100610.69;4998460;28;20033;-76
2023/07/05 03:53:39;;;;;;;8.27;4.78;;;;;;;14.14;77.59;100624.47;5019719;28;20060;-77
2023/07/05 03:56:09;;;;;;;10.52;4.70;;;;;;;14.12;78.01;100610.50;4982958;28;20026;-77
2023/07/05 03:58:36;;;;;;;9.20;4.53;;;;;;;14.05;78.54;100620.88;5024096;28;20049;-77
2023/07/05 04:01:15;;;;;;;15.63;5.38;;;;;;;14.05;78.33;100627.06;5009547;28;20064;-77
2023/07/05 04:03:42;;;;;;;12.02;4.75;;;;;;;14.02;79.10;100626.81;4992475;28;20045;-77
2023/07/05 04:06:08;;;;;;;8.90;5.00;;;;;;;13.99;81.54;100620.16;5038832;28;20493;-79
2023/07/05 04:08:34;;;;;;;;;;;;;;;13.92;80.88;100612.44;5005162;28;20034;-73
2023/07/05 04:11:02;;;;;;;10.25;5.05;;;;;;;13.85;81.30;100609.34;4993453;28;19989;-76
2023/07/05 04:13:28;;;;;;;9.10;5.28;;;;;;;13.82;82.26;100612.63;5026754;28;20060;-76
2023/07/05 04:16:15;;;;;;;8.82;5.28;;;;;;;13.76;82.66;100608.44;5007243;28;20061;-76
2023/07/05 04:18:42;;;;;;;9.23;4.97;;;;;;;13.73;82.73;100602.81;5021803;28;20073;-76
2023/07/05 04:21:08;;;;;;;8.80;5.25;;;;;;;13.68;82.84;100594.81;4987387;28;20282;-78
2023/07/05 04:23:35;;;;;;;10.63;5.40;;;;;;;13.62;82.88;100586.84;5024288;28;20116;-77
2023/07/05 04:26:03;;;;;;;9.57;5.55;;;;;;;13.58;83.81;100580.44;5028790;28;20064;-77
2023/07/05 04:28:30;;;;;;;9.52;5.57;;;;;;;13.57;84.27;100588.81;5009024;28;20680;-77
2023/07/05 04:30:56;;;;;;;14.10;6.07;;;;;;;13.54;84.77;100589.38;5007642;28;20423;-78
2023/07/05 04:33:22;;;;;;;10.10;5.38;;;;;;;13.49;84.83;100587.59;5008852;28;20524;-80
2023/07/05 04:35:52;;;;;;;10.23;6.03;;;;;;;13.48;84.94;100593.25;5025839;28;20049;-78
2023/07/05 04:38:18;;;;;;;10.52;5.55;;;;;;;13.41;86.23;100574.78;5022783;28;20037;-77
2023/07/05 04:40:44;;;;;;;10.98;5.80;;;;;;;13.35;85.93;100582.16;5022422;28;20106;-76
2023/07/05 04:43:10;;;;;;;14.98;6.18;;;;;;;13.34;86.53;100575.16;5001092;28;20035;-77
2023/07/05 04:45:36;;;;;;;10.77;6.30;;;;;;;13.31;86.51;100575.75;4990076;28;20175;-78
2023/07/05 04:48:02;;;;;;;11.43;6.75;;;;;;;13.28;86.60;100562.88;4992497;28;20524;-76
2023/07/05 04:50:28;;;;;;;9.95;5.90;;;;;;;13.24;86.60;100564.53;5008381;28;20045;-78
2023/07/05 04:52:55;;;;;;;11.38;6.30;;;;;;;13.26;87.34;100551.59;5023641;28;20038;-78
2023/07/05 04:55:21;;;;;;;9.95;6.10;;;;;;;13.28;87.41;100552.13;5022102;28;20025;-78
2023/07/05 04:57:46;;;;;;;12.20;6.00;;;;;;;13.25;87.04;100547.31;5007043;28;20072;-78
2023/07/05 05:00:13;;;;;;;11.10;5.85;;;;;;;13.25;87.60;100544.63;5028601;28;20779;-77
2023/07/05 05:02:39;;;;;;;11.07;6.35;;;;;;;13.22;87.91;100545.22;5015926;28;20038;-77
2023/07/05 05:05:06;;;;;;;12.38;6.35;;;;;;;13.22;88.13;100545.22;5025811;28;20034;-79
2023/07/05 05:07:32;;;;;;;10.05;6.43;;;;;;;13.22;87.79;100544.44;5010637;28;20088;-78
2023/07/05 05:09:59;;;;;;;11.05;6.25;;;;;;;13.19;88.28;100540.38;5028906;28;20037;-78
2023/07/05 05:12:25;;;;;;;12.80;6.40;;;;;;;13.19;87.85;100545.75;5029459;28;20420;-77
2023/07/05 05:14:50;;;;;;;11.77;6.50;;;;;;;13.18;88.37;100544.16;5010421;28;20029;-78
2023/07/05 05:17:16;;;;;;;11.63;6.88;;;;;;;13.15;89.29;100534.00;4997682;28;20423;-78
2023/07/05 05:19:42;;;;;;;10.25;6.53;;;;;;;13.18;89.01;100528.03;5026289;28;20125;-77
2023/07/05 05:22:10;;;;;;;12.48;6.70;;;;;;;13.20;89.51;100525.03;5008479;28;20038;-77
2023/07/05 05:24:36;;;;;;;11.30;7.32;;;;;;;13.13;89.89;100515.47;5028781;28;20495;-77
2023/07/05 05:27:02;;;;;;;12.48;7.22;;;;;;;13.09;89.70;100514.47;5022518;28;20105;-79
2023/07/05 05:29:29;;;;;;;15.25;6.40;;;;;;;13.08;89.48;100518.25;5013713;28;20061;-79
2023/07/05 05:31:56;;;;;;;12.70;7.70;;;;;;;13.02;89.74;100514.03;5025250;28;20026;-77
2023/07/05 05:34:26;;;;;;;14.27;7.03;;;;;;;13.00;89.90;100508.13;5033037;28;20103;-75
2023/07/05 05:36:52;;;;;;;11.88;7.50;;;;;;;12.97;90.13;100494.47;5048210;28;20412;-77
2023/07/05 05:39:19;;;;;;;14.90;8.43;;;;;;;13.02;91.05;100502.47;4994293;28;20493;-78
2023/07/05 05:41:45;;;;;;;14.65;7.00;;;;;;;12.98;90.57;100490.69;5030894;28;20105;-76
2023/07/05 05:44:10;;;;;;;11.18;7.78;;;;;;;12.97;90.39;100497.16;5014996;28;20128;-77
2023/07/05 05:46:37;;;;;;;12.15;7.22;;;;;;;12.98;90.44;100490.69;5012879;28;20386;-77
2023/07/05 05:49:02;;;;;;;13.50;8.43;;;;;;;13.00;90.86;100475.06;5025579;28;20038;-77
2023/07/05 05:51:28;;;;;;;14.10;8.13;;;;;;;13.01;90.94;100474.00;5009220;28;20436;-76
2023/07/05 05:53:54;;;;;;;11.48;7.82;;;;;;;13.01;90.99;100479.38;5026906;28;20092;-74
2023/07/05 05:56:19;;;;;;;16.48;7.60;;;;;;;13.00;91.39;100470.50;5031889;28;20029;-77
2023/07/05 05:58:46;;;;;;;12.57;7.22;;;;;;;13.00;91.18;100464.31;5009449;28;20048;-76
2023/07/05 06:01:12;;;;;;;12.48;8.60;;;;;;;13.04;91.68;100462.66;5014145;28;20030;-76
2023/07/05 06:03:38;;;;;;;;;;;;;;;13.07;91.96;100459.38;5026284;28;20454;-77
2023/07/05 06:06:05;;;;;;;10.55;7.05;;;;;;;13.08;91.64;100452.91;5026920;28;19971;-77
2023/07/05 06:08:32;;;;;;;11.68;7.82;;;;;;;13.04;91.74;100444.63;5025488;28;20025;-78
2023/07/05 06:11:00;;;;;;;14.50;8.85;;;;;;;13.07;91.65;100440.53;5020368;28;20061;-75
2023/07/05 06:13:27;;;;;;;13.98;8.13;;;;;;;13.09;92.00;100433.00;5027134;28;20120;-75
2023/07/05 06:16:01;;;;;;;14.32;8.55;;;;;;;13.09;91.93;100441.06;5026500;28;20033;-77
2023/07/05 06:18:28;;;;;;;11.43;7.28;;;;;;;13.10;91.77;100432.72;5011773;28;20042;-78
2023/07/05 06:20:54;;;;;;;13.90;8.23;;;;;;;13.15;92.55;100437.22;5024920;28;20033;-74
2023/07/05 06:23:20;;;;;;;11.80;7.75;;;;;;;13.17;91.88;100428.84;5028512;28;20033;-76
2023/07/05 06:25:49;;;;;;;10.70;7.40;;;;;;;13.18;91.64;100425.84;5029806;28;20388;-77
2023/07/05 06:28:19;;;;;;;13.35;8.52;;;;;;;13.20;92.29;100422.88;4996168;28;20038;-75
2023/07/05 06:30:46;;;;;;;10.13;7.80;;;;;;;13.19;92.32;100422.06;4994903;28;20432;-79
2023/07/05 06:33:14;;;;;;;19.00;8.75;;;;;;;13.25;92.58;100425.50;5014131;28;20404;-79
2023/07/05 06:35:39;;;;;;;12.80;8.55;;;;;;;13.30;92.09;100428.91;5017915;28;20037;-78
2023/07/05 06:38:05;;;;;;;13.60;10.07;;;;;;;13.33;92.73;100433.69;5026093;28;20124;-80
2023/07/05 06:40:31;;;;;;;11.25;7.28;;;;;;;13.30;92.27;100428.91;5005975;28;20037;-76
2023/07/05 06:42:58;;;;;;;11.95;8.65;;;;;;;13.31;91.92;100429.72;5013644;28;20037;-78
2023/07/05 06:45:28;;;;;;;12.45;7.90;;;;;;;13.31;91.79;100429.72;5013656;28;20029;-77
2023/07/05 06:47:54;;;;;;;12.10;7.07;;;;;;;13.30;91.68;100431.59;5012020;28;20620;-76
2023/07/05 06:50:20;;;;;;;16.20;8.88;;;;;;;13.29;92.20;100443.47;5006393;28;20025;-77
2023/07/05 06:52:45;;;;;;;17.33;8.55;;;;;;;13.25;92.56;100441.66;4991628;28;20037;-78
2023/07/05 06:55:11;;;;;;;18.38;8.98;;;;;;;13.23;92.61;100422.31;5008538;28;20029;-78
2023/07/05 06:57:40;;;;;;;;;;;;;;;13.26;92.49;100427.91;4995581;28;20074;-78
2023/07/05 07:00:07;;;;;;;15.68;8.43;;;;;;;13.25;92.72;100426.31;5023207;28;19952;-79
2023/07/05 07:02:33;;;;;;;14.73;8.68;;;;;;;13.21;92.84;100417.25;5006807;28;20077;-77
2023/07/05 07:05:02;;;;;;;13.55;8.18;;;;;;;13.22;92.75;100416.16;5022735;28;20026;-78
2023/07/05 07:07:28;;;;;;;12.98;8.57;;;;;;;13.22;92.78;100399.22;5010164;28;20595;-78
2023/07/05 07:09:56;;;;;;;15.45;8.88;;;;;;;13.19;93.11;100389.00;5005268;28;20665;-79
2023/07/05 07:12:22;;;;;;;12.25;8.60;;;;;;;13.19;93.40;100384.44;5012806;28;20051;-79
2023/07/05 07:14:47;;;;;;;15.02;8.70;;;;;;;13.19;93.17;100392.50;5003831;28;20045;-77
2023/07/05 07:17:13;;;;;;;14.90;9.15;;;;;;;13.22;93.61;100383.88;5008436;28;20144;-78
2023/07/05 07:19:39;;;;;;;16.30;8.20;;;;;;;13.22;93.67;100369.66;4997979;28;20034;-78
2023/07/05 07:22:08;;;;;;;14.38;8.73;;;;;;;13.26;93.97;100363.34;5000692;28;20049;-78
2023/07/05 07:24:34;;;;;;;16.73;9.20;;;;;;;13.30;94.26;100387.78;5007162;28;20508;-77
2023/07/05 07:27:00;;;;;;;16.40;9.85;;;;;;;13.36;94.34;100406.22;5020542;28;20129;-77
2023/07/05 07:29:26;;;;;;;13.18;8.77;;;;;;;13.44;94.40;100396.66;5024446;28;20089;-79
2023/07/05 07:31:51;;;;;;;15.20;8.52;;;;;;;13.47;94.77;100396.06;5005103;28;20034;-77
2023/07/05 07:34:17;;;;;;;19.40;9.23;;;;;;;13.50;94.68;100389.31;5006188;28;20359;-78
2023/07/05 07:36:45;;;;;;;15.75;8.77;;;;;;;13.55;94.98;100390.00;5025003;28;20046;-78
2023/07/05 07:39:10;;;;;;;16.45;10.45;;;;;;;13.54;94.80;100395.66;5022330;28;20424;-79
2023/07/05 07:41:37;;;;;;;13.75;8.70;;;;;;;13.59;94.89;100409.03;5024206;28;20029;-77
2023/07/05 07:44:06;;;;;;;15.07;10.10;;;;;;;13.64;95.08;100395.50;5004799;28;20038;-79
2023/07/05 07:46:33;;;;;;;12.98;8.70;;;;;;;13.66;94.90;100387.91;5010548;28;20120;-79
2023/07/05 07:49:02;;;;;;;14.00;9.57;;;;;;;13.75;95.09;100393.38;4993306;28;20069;-78
2023/07/05 07:51:31;;;;;;;12.38;9.10;;;;;;;13.77;94.79;100386.63;5023833;28;20048;-78
2023/07/05 07:53:57;;;;;;;13.07;8.35;;;;;;;13.84;94.88;100387.03;4992841;28;20120;-77
2023/07/05 07:56:24;;;;;;;16.05;9.07;;;;;;;13.88;94.97;100393.38;5023328;28;20627;-78
2023/07/05 07:58:54;;;;;;;12.73;9.00;;;;;;;13.87;95.18;100399.88;5006311;28;20099;-77
2023/07/05 08:01:32;;;;;;;15.13;9.07;;;;;;;13.93;95.25;100406.75;5006290;28;20623;-76
2023/07/05 08:04:01;;;;;;;13.90;9.02;;;;;;;13.96;95.03;100401.88;5007715;28;20037;-79
2023/07/05 08:06:32;;;;;;;11.85;9.05;;;;;;;14.00;94.92;100408.25;5024653;28;20047;-78
2023/07/05 08:08:59;;;;;;;14.55;8.68;;;;;;;14.00;95.00;100413.63;5007842;28;20041;-76
2023/07/05 08:11:24;;;;;;;14.10;9.35;;;;;;;14.05;95.30;100405.47;5017449;28;20374;-80
2023/07/05 08:13:50;;;;;;;12.55;8.48;;;;;;;14.09;95.40;100406.44;4988056;28;20029;-78
2023/07/05 08:16:17;;;;;;;14.23;9.05;;;;;;;14.14;95.73;100399.06;5002784;28;21324;-78
2023/07/05 08:18:44;;;;;;;12.90;9.32;;;;;;;14.23;95.67;100406.44;5015836;28;20516;-77
2023/07/05 08:21:12;;;;;;;12.90;9.60;;;;;;;14.31;95.75;100403.84;4997349;28;20950;-78
2023/07/05 08:23:39;;;;;;;13.68;8.93;;;;;;;14.45;96.20;100395.72;5021098;28;20048;-79
2023/07/05 08:26:04;;;;;;;11.82;8.95;;;;;;;14.52;95.97;100398.81;4989272;28;20033;-78
2023/07/05 08:28:30;;;;;;;11.65;8.75;;;;;;;14.73;96.40;100393.75;5024234;28;20063;-78
2023/07/05 08:30:59;;;;;;;13.18;8.82;;;;;;;14.85;96.61;100404.78;5007753;28;20034;-78
2023/07/05 08:33:26;;;;;;;13.98;8.77;;;;;;;14.99;96.87;100405.53;5001594;28;20037;-78
2023/07/05 08:36:28;;;;;;;12.82;7.72;;;;;;;15.10;96.68;100386.38;5029342;28;20435;-77
2023/07/05 08:38:59;;;;;;;10.98;7.90;;;;;;;15.22;95.75;100384.72;5044892;28;20034;-77
2023/07/05 08:41:49;;;;;;;11.98;7.93;;;;;;;15.42;96.10;100388.00;4996170;28;21644;-78
2023/07/05 08:44:24;;;;;;;;;;;;;;;15.61;96.47;100379.66;5028515;28;20131;-75
2023/07/05 08:47:08;;;;;;;10.80;7.30;;;;;;;15.69;95.62;100389.72;5020176;28;19916;-76
2023/07/05 08:49:44;;;;;;;8.70;6.35;;;;;;;15.75;93.61;100378.47;5003938;28;20377;-76
2023/07/05 08:52:35;;;;;;;10.43;7.32;;;;;;;16.20;94.64;100380.97;5011016;28;20075;-77
2023/07/05 08:55:05;;;;;;;10.57;7.30;;;;;;;16.34;93.22;100394.34;5007831;28;20037;-78
2023/07/05 08:57:42;;;;;;;10.60;6.97;;;;;;;16.53;94.05;100389.44;5021206;28;20042;-77
2023/07/05 09:00:14;;;;;;;9.55;6.53;;;;;;;16.60;93.17;100378.94;5026388;28;20108;-76
2023/07/05 09:02:39;;;;;;;9.43;6.57;;;;;;;16.75;92.10;100401.22;5005366;28;20352;-77
2023/07/05 09:05:44;;;;;;;8.77;5.68;;;;;;;16.73;88.34;100392.63;5009079;28;20029;-77
2023/07/05 09:08:48;;;;;;;9.55;6.78;;;;;;;17.04;90.99;100406.75;5009660;28;20053;-78
2023/07/05 09:11:32;;;;;;;6.90;5.13;;;;;;;17.13;87.08;100407.53;5031714;28;20104;-76
2023/07/05 09:14:08;;;;;;;;;;;;;;;17.31;86.28;100407.50;5018254;28;20038;-78
2023/07/05 09:16:49;;;;;;;5.03;3.47;;;;;;;17.40;85.45;100397.44;5014742;28;19917;-77
2023/07/05 09:19:40;;;;;;;5.50;4.22;;;;;;;17.48;81.90;100407.47;5008355;28;20045;-79
2023/07/05 09:22:11;;;;;;;9.30;3.72;;;;;;;17.44;79.45;100425.47;5000190;28;20042;-80
2023/07/05 09:24:39;;;;;;;4.43;2.95;;;;;;;17.51;78.64;100420.34;5024817;28;20033;-75
2023/07/05 09:27:10;;;;;;;5.53;3.42;;;;;;;17.63;80.76;100425.88;4991596;28;20496;-77
2023/07/05 09:29:47;;;;;;;6.85;3.03;;;;;;;17.66;78.68;100425.22;5020910;28;20045;-76
2023/07/05 09:32:18;;;;;;;7.78;4.25;;;;;;;17.61;74.81;100432.72;5031925;28;20033;-78
2023/07/05 09:34:55;;;;;;;4.03;2.88;;;;;;;17.47;72.34;100432.91;5022829;28;20121;-78
2023/07/05 09:37:23;;;;;;;5.05;3.10;;;;;;;17.53;72.06;100442.47;5031090;28;20067;-78
2023/07/05 09:40:02;;;;;;;7.95;3.55;;;;;;;17.65;74.27;100433.66;5025061;28;20408;-76
2023/07/05 09:42:50;;;;;;;3.58;2.78;;;;;;;17.76;72.80;100450.41;5001310;28;20690;-79
2023/07/05 09:45:17;;;;;;;5.55;3.50;;;;;;;17.92;72.20;100446.03;5004615;28;20025;-76
2023/07/05 09:47:46;;;;;;;6.90;3.00;;;;;;;18.00;73.19;100450.59;5007430;28;20041;-77
2023/07/05 09:50:18;;;;;;;5.20;3.53;;;;;;;17.71;70.59;100470.31;5024403;28;20029;-77
2023/07/05 09:52:52;;;;;;;3.78;2.67;;;;;;;17.69;69.99;100461.72;5005012;28;20041;-78
2023/07/05 09:55:19;;;;;;;6.28;3.92;;;;;;;17.74;70.36;100451.50;5020639;28;20032;-77
2023/07/05 09:57:47;;;;;;;5.03;2.90;;;;;;;17.52;66.25;100440.88;5011366;28;20051;-77
2023/07/05 10:00:34;;;;;;;6.03;3.42;;;;;;;17.65;67.85;100458.84;5009646;28;20091;-79
2023/07/05 10:03:10;;;;;;;5.22;2.60;;;;;;;17.76;66.71;100461.25;5015551;28;20510;-79
2023/07/05 10:05:36;;;;;;;4.25;2.60;;;;;;;18.12;68.08;100444.50;5037166;28;20428;-80
2023/07/05 10:08:06;;;;;;;;;;;;;;;18.17;65.80;100444.31;5008829;28;20164;-76
2023/07/05 10:10:35;;;;;;;4.28;2.58;;;;;;;18.22;65.92;100435.97;5031666;28;19923;-77
2023/07/05 10:13:13;;;;;;;4.53;2.80;;;;;;;18.38;66.99;100447.06;5007751;28;20125;-78
2023/07/05 10:15:50;;;;;;;5.20;2.70;;;;;;;18.65;67.08;100443.03;5009076;28;20499;-78
2023/07/05 10:18:30;;;;;;;4.68;3.42;;;;;;;18.87;66.64;100441.94;5024855;28;20408;-78
2023/07/05 10:20:58;;;;;;;5.25;2.45;;;;;;;19.01;64.25;100443.22;5012256;28;20053;-76
2023/07/05 10:23:25;;;;;;;5.13;3.58;;;;;;;19.22;63.75;100436.97;5008937;28;20142;-77
2023/07/05 10:25:52;;;;;;;5.60;2.55;;;;;;;19.37;63.09;100447.19;4995382;28;20241;-76
2023/07/05 10:28:28;;;;;;;5.03;3.42;;;;;;;19.31;59.40;100438.50;5021519;28;20816;-78
2023/07/05 10:31:00;;;;;;;5.57;2.63;;;;;;;19.18;58.31;100434.16;5037313;28;20511;-78
2023/07/05 10:33:31;;;;;;;4.35;2.55;;;;;;;19.27;56.97;100436.75;5008428;28;20033;-75
2023/07/05 10:35:58;;;;;;;4.85;2.75;;;;;;;19.34;58.37;100445.16;5016744;28;20025;-75
2023/07/05 10:38:30;;;;;;;4.65;2.83;;;;;;;19.23;59.92;100441.25;5011756;28;20041;-79
2023/07/05 10:40:59;;;;;;;;;;;;;;;18.98;59.84;100427.63;5020761;28;20115;-79
2023/07/05 10:43:26;;;;;;;5.57;3.10;;;;;;;18.62;57.70;100449.91;5012534;28;19917;-78
2023/07/05 10:45:52;;;;;;;5.15;2.55;;;;;;;18.34;58.17;100448.81;5019330;28;20486;-75
2023/07/05 10:48:25;;;;;;;6.00;3.78;;;;;;;18.23;58.60;100438.38;5020173;28;20060;-76
2023/07/05 10:50:51;;;;;;;3.92;2.50;;;;;;;18.33;61.00;100458.09;4990688;28;20041;-73
2023/07/05 10:53:23;;;;;;;5.03;3.05;;;;;;;18.14;59.22;100448.44;4992048;28;20143;-77
2023/07/05 10:56:17;;;;;;;6.90;2.80;;;;;;;17.92;59.64;100449.53;5008075;28;20030;-75
2023/07/05 10:59:08;;;;;;;4.15;2.58;;;;;;;17.83;59.72;100462.31;5021428;28;20091;-78
2023/07/05 11:01:40;;;;;;;4.03;2.25;;;;;;;17.85;61.23;100459.28;5001204;28;20136;-76
2023/07/05 11:04:18;;;;;;;5.38;2.88;;;;;;;17.80;60.29;100457.53;5019760;28;20033;-75
2023/07/05 11:06:45;;;;;;;;;;;;;;;17.63;60.94;100473.84;5019578;28;20050;-76
2023/07/05 11:09:11;;;;;;;8.32;2.97;;;;;;;17.54;59.53;100468.41;5006131;28;19925;-76
2023/07/05 11:11:42;;;;;;;;;;;;;;;17.44;58.94;100476.91;5026559;28;20054;-76
2023/07/05 11:14:12;;;;;;;7.55;2.25;;;;;;;17.46;59.88;100480.06;4998934;28;20474;-74
2023/07/05 11:16:42;;;;;;;3.97;2.35;;;;;;;17.59;62.32;100483.69;5016106;28;20028;-78
2023/07/05 11:19:13;;;;;;;5.35;2.58;;;;;;;17.86;59.69;100490.66;5005145;28;20111;-73
2023/07/05 11:21:45;;;;;;;4.85;2.20;;;;;;;18.04;54.96;100478.66;4993677;28;20045;-76
2023/07/05 11:24:32;;;;;;;6.03;2.45;;;;;;;18.04;57.14;100489.47;4988847;28;20106;-76
2023/07/05 11:26:59;;;;;;;7.03;2.05;;;;;;;18.10;58.72;100484.69;4993115;28;20045;-76
2023/07/05 11:29:25;;;;;;;7.25;3.33;;;;;;;18.08;58.26;100492.31;5011873;28;20111;-77
2023/07/05 11:31:53;;;;;;;;;;;;;;;18.07;59.67;100494.25;5030860;28;20455;-75
2023/07/05 11:34:25;;;;;;;4.43;2.50;;;;;;;18.04;57.61;100499.53;5000152;28;19991;-77
2023/07/05 11:37:14;;;;;;;4.75;2.30;;;;;;;17.96;59.78;100501.16;5025038;28;20035;-75
2023/07/05 11:39:48;;;;;;;4.63;2.00;;;;;;;17.84;57.75;100501.81;5039654;28;20041;-77
2023/07/05 11:42:14;;;;;;;7.78;2.10;;;;;;;18.30;54.87;100507.53;5005980;28;20037;-77
2023/07/05 11:44:39;;;;;;;;;;;;;;;18.20;55.46;100509.47;5025856;28;20035;-75